Time;durP1;ratioP1;P1;durP2;ratioP2;P2;SDS_P1;SDS_P2;PMS_P1;PMS_P2;Temp;Humidity;BMP_temperature;BMP_pressure;BME280_temperature;BME280_humidity;BME280_pressure;Samples;Min_cycle;Max_cycle;Signal;HPM_P1;HPM_P2
2023/08/19 00:01:34;;;;;;;25.13;22.52;;;20.80;99.90;;;;;;5134489;27;20141;-71
2023/08/19 00:04:00;;;;;;;23.83;21.05;;;20.70;99.90;;;;;;5134899;27;20376;-70
2023/08/19 00:06:39;;;;;;;25.40;21.20;;;20.60;99.90;;;;;;5134395;27;20042;-70
2023/08/19 00:09:07;;;;;;;23.77;21.17;;;20.70;99.90;;;;;;5115796;27;20576;-70
2023/08/19 00:11:35;;;;;;;24.95;21.02;;;20.70;99.90;;;;;;5134239;27;20046;-70
2023/08/19 00:14:01;;;;;;;22.90;20.48;;;20.70;99.90;;;;;;5099164;27;20384;-70
2023/08/19 00:16:26;;;;;;;21.65;19.35;;;20.60;99.90;;;;;;5134104;27;20035;-70
2023/08/19 00:18:52;;;;;;;20.45;18.35;;;20.60;99.90;;;;;;5082692;27;20047;-70
2023/08/19 00:21:18;;;;;;;20.75;18.55;;;20.60;99.90;;;;;;5134416;27;20125;-70
2023/08/19 00:23:43;;;;;;;21.08;18.88;;;20.60;99.90;;;;;;5134104;27;20104;-70
2023/08/19 00:26:11;;;;;;;21.35;19.17;;;20.60;99.90;;;;;;5115875;27;20058;-70
2023/08/19 00:28:40;;;;;;;20.23;17.90;;;20.60;99.90;;;;;;5133898;27;20540;-71
2023/08/19 00:31:07;;;;;;;21.77;19.58;;;20.50;99.90;;;;;;5134116;27;20043;-70
2023/08/19 00:33:34;;;;;;;20.70;18.65;;;20.50;99.90;;;;;;5133778;27;20479;-70
2023/08/19 00:36:00;;;;;;;17.55;15.82;;;20.50;99.90;;;;;;5133941;27;20364;-70
2023/08/19 00:38:26;;;;;;;21.15;18.92;;;20.50;99.90;;;;;;5134076;27;20051;-71
2023/08/19 00:40:51;;;;;;;23.65;18.23;;;20.50;99.90;;;;;;5133766;27;20122;-71
2023/08/19 00:43:17;;;;;;;20.48;18.30;;;20.50;99.90;;;;;;5115713;27;20474;-72
2023/08/19 00:45:46;;;;;;;23.67;20.17;;;20.50;99.90;;;;;;5133486;27;20062;-71
2023/08/19 00:48:14;;;;;;;19.25;16.08;;;20.40;99.90;;;;;;5133833;27;20081;-71
2023/08/19 00:50:40;;;;;;;20.25;18.13;;;20.50;99.90;;;;;;5133847;27;20538;-71
2023/08/19 00:53:08;;;;;;;21.23;18.67;;;20.40;99.90;;;;;;5133668;27;20049;-71
2023/08/19 00:55:35;;;;;;;20.48;18.27;;;20.50;99.90;;;;;;5133561;27;20046;-71
2023/08/19 00:58:03;;;;;;;22.30;19.65;;;20.40;99.90;;;;;;5133649;27;20126;-70
2023/08/19 01:00:32;;;;;;;22.67;20.27;;;20.40;99.90;;;;;;5134184;27;20051;-70
2023/08/19 01:03:06;;;;;;;20.13;17.95;;;20.40;99.90;;;;;;5133497;27;20039;-70
2023/08/19 01:05:49;;;;;;;23.60;20.30;;;20.40;99.90;;;;;;5134076;27;20401;-70
2023/08/19 01:08:22;;;;;;;23.15;20.75;;;20.40;99.90;;;;;;5133880;27;20541;-70
2023/08/19 01:11:05;;;;;;;22.42;20.08;;;20.30;99.90;;;;;;5115164;27;20484;-69
2023/08/19 01:13:41;;;;;;;21.92;19.63;;;20.30;99.90;;;;;;5133782;27;20066;-70
2023/08/19 01:16:25;;;;;;;22.30;19.58;;;20.40;99.90;;;;;;5134021;27;20066;-70
2023/08/19 01:18:52;;;;;;;20.42;17.45;;;20.30;99.90;;;;;;5133338;28;20047;-69
2023/08/19 01:21:18;;;;;;;21.23;19.13;;;20.30;99.90;;;;;;5133421;28;20107;-69
2023/08/19 01:23:46;;;;;;;20.08;18.08;;;20.20;99.90;;;;;;5115223;28;20126;-70
2023/08/19 01:26:12;;;;;;;20.80;18.60;;;20.30;99.90;;;;;;5133095;28;20054;-70
2023/08/19 01:28:38;;;;;;;18.75;16.75;;;20.30;99.90;;;;;;5133163;28;20445;-70
2023/08/19 01:31:03;;;;;;;20.17;18.05;;;20.30;99.90;;;;;;5115740;28;20035;-70
2023/08/19 01:33:30;;;;;;;23.08;19.92;;;20.30;99.90;;;;;;5115161;28;20579;-70
2023/08/19 01:36:20;;;;;;;18.83;16.17;;;20.30;99.90;;;;;;5115289;28;20114;-70
2023/08/19 01:38:55;;;;;;;20.30;17.08;;;20.30;99.90;;;;;;5133724;28;20165;-70
2023/08/19 01:41:23;;;;;;;20.30;18.08;;;20.20;99.90;;;;;;5115168;28;20180;-69
2023/08/19 01:43:49;;;;;;;18.33;16.25;;;20.20;99.90;;;;;;5114728;28;20123;-70
2023/08/19 01:46:15;;;;;;;17.70;15.75;;;20.20;99.90;;;;;;5133188;28;20054;-70
2023/08/19 01:48:41;;;;;;;16.80;14.02;;;20.20;99.90;;;;;;5133665;28;20083;-70
2023/08/19 01:51:07;;;;;;;17.77;15.18;;;20.20;99.90;;;;;;5133416;28;20495;-70
2023/08/19 01:53:33;;;;;;;19.60;17.70;;;20.20;99.90;;;;;;5133244;28;20047;-70
2023/08/19 01:55:58;;;;;;;16.35;14.68;;;20.10;99.90;;;;;;5114571;28;20132;-70
2023/08/19 01:58:24;;;;;;;21.42;19.23;;;20.10;99.90;;;;;;5132660;28;20047;-70
2023/08/19 02:00:50;;;;;;;18.23;15.88;;;20.10;99.90;;;;;;5132491;28;20046;-70
2023/08/19 02:03:15;;;;;;;19.67;17.48;;;20.10;99.90;;;;;;5115054;28;20047;-70
2023/08/19 02:05:41;;;;;;;17.40;15.50;;;20.00;99.90;;;;;;5132985;28;20054;-71
2023/08/19 02:08:07;;;;;;;15.18;13.57;;;20.10;99.90;;;;;;5114552;28;20053;-70
2023/08/19 02:10:33;;;;;;;18.70;16.73;;;20.00;99.90;;;;;;5132730;28;20047;-70
2023/08/19 02:12:58;;;;;;;18.10;16.38;;;20.00;99.90;;;;;;5132809;28;20053;-70
2023/08/19 02:15:24;;;;;;;15.95;14.45;;;20.00;99.90;;;;;;5132978;28;20049;-70
2023/08/19 02:17:50;;;;;;;10.95;9.93;;;20.00;99.90;;;;;;5133180;27;20481;-70
2023/08/19 02:20:15;;;;;;;15.30;13.75;;;19.90;99.90;;;;;;5118355;27;20088;-70
2023/08/19 02:22:41;;;;;;;15.10;13.48;;;19.90;99.90;;;;;;5137066;27;20110;-70
2023/08/19 02:25:07;;;;;;;15.32;13.75;;;19.90;99.90;;;;;;5136609;27;20448;-70
2023/08/19 02:27:33;;;;;;;15.60;13.98;;;19.90;99.90;;;;;;5136490;27;20497;-70
2023/08/19 02:29:59;;;;;;;18.38;16.25;;;19.90;99.90;;;;;;5136422;27;20046;-70
2023/08/19 02:32:25;;;;;;;16.02;14.43;;;19.90;99.90;;;;;;5136757;27;20050;-70
2023/08/19 02:34:51;;;;;;;15.45;13.95;;;19.90;99.90;;;;;;5136059;27;20470;-70
2023/08/19 02:37:17;;;;;;;17.95;16.05;;;19.80;99.90;;;;;;5136220;27;20113;-70
2023/08/19 02:39:43;;;;;;;24.98;17.33;;;19.80;99.90;;;;;;5135849;27;20122;-67
2023/08/19 02:42:11;;;;;;;106.25;23.42;;;19.80;99.90;;;;;;5118237;27;20043;-67
2023/08/19 02:44:36;;;;;;;48.50;16.27;;;19.60;99.90;;;;;;5136186;27;20468;-67
2023/08/19 02:47:02;;;;;;;19.25;13.40;;;19.50;99.90;;;;;;5118390;27;20092;-67
2023/08/19 02:49:28;;;;;;;21.60;14.00;;;19.50;99.90;;;;;;5136607;27;20099;-67
2023/08/19 02:51:54;;;;;;;15.52;14.02;;;19.50;99.90;;;;;;5136467;27;20473;-67
2023/08/19 02:54:19;;;;;;;17.98;16.17;;;19.40;99.90;;;;;;5136496;27;20466;-67
2023/08/19 02:56:45;;;;;;;20.92;18.83;;;19.40;99.90;;;;;;5136122;27;20435;-67
2023/08/19 02:59:11;;;;;;;20.25;18.25;;;19.50;99.90;;;;;;5136219;27;20101;-67
2023/08/19 03:01:37;;;;;;;18.98;17.02;;;19.40;99.90;;;;;;5118237;27;20163;-67
2023/08/19 03:04:02;;;;;;;23.02;19.42;;;19.50;99.90;;;;;;5135808;27;20164;-67
2023/08/19 03:06:28;;;;;;;23.05;19.90;;;19.40;99.90;;;;;;5117703;27;20050;-67
2023/08/19 03:08:54;;;;;;;22.35;19.90;;;19.40;99.90;;;;;;5135636;27;20447;-67
2023/08/19 03:11:19;;;;;;;23.80;21.20;;;19.50;99.90;;;;;;5117888;27;20050;-67
2023/08/19 03:13:45;;;;;;;21.77;18.27;;;19.40;99.90;;;;;;5117856;27;20457;-66
2023/08/19 03:16:11;;;;;;;22.98;20.50;;;19.50;99.90;;;;;;5135587;27;20079;-67
2023/08/19 03:18:36;;;;;;;26.02;21.77;;;19.50;99.90;;;;;;5135556;27;20071;-67
2023/08/19 03:21:02;;;;;;;23.20;20.70;;;19.50;99.90;;;;;;5135489;27;20088;-67
2023/08/19 03:23:28;;;;;;;26.52;22.35;;;19.50;99.90;;;;;;5117046;27;20052;-67
2023/08/19 03:25:55;;;;;;;23.60;21.08;;;19.50;99.90;;;;;;5117956;27;20050;-67
2023/08/19 03:28:21;;;;;;;25.33;22.73;;;19.50;99.90;;;;;;5135370;27;20047;-66
2023/08/19 03:30:47;;;;;;;24.73;21.67;;;19.50;99.90;;;;;;5134133;27;20163;-66
2023/08/19 03:33:12;;;;;;;28.23;22.13;;;19.50;99.90;;;;;;5135474;27;20055;-66
2023/08/19 03:35:38;;;;;;;24.70;21.38;;;19.50;99.90;;;;;;5135259;27;20103;-66
2023/08/19 03:38:04;;;;;;;23.25;20.85;;;19.50;99.90;;;;;;5135483;27;20046;-66
2023/08/19 03:40:29;;;;;;;24.30;21.77;;;19.50;99.90;;;;;;5135082;27;20051;-66
2023/08/19 03:42:55;;;;;;;25.00;22.33;;;19.60;99.90;;;;;;5134995;27;20078;-66
2023/08/19 03:45:21;;;;;;;26.88;23.77;;;19.50;99.90;;;;;;5134904;27;20039;-66
2023/08/19 03:47:47;;;;;;;25.15;20.10;;;19.50;99.90;;;;;;5134878;27;20130;-66
2023/08/19 03:50:13;;;;;;;24.38;21.75;;;19.50;99.90;;;;;;5134995;27;20395;-67
2023/08/19 03:52:39;;;;;;;25.30;22.67;;;19.50;99.90;;;;;;5134963;27;20054;-66
2023/08/19 03:55:06;;;;;;;21.55;18.95;;;19.50;99.90;;;;;;5134843;27;20044;-66
2023/08/19 03:57:31;;;;;;;19.17;17.05;;;19.50;99.90;;;;;;5134784;27;20036;-66
2023/08/19 03:59:57;;;;;;;21.65;19.35;;;19.50;99.90;;;;;;5134501;27;20050;-66
2023/08/19 04:02:23;;;;;;;19.70;17.45;;;19.50;99.90;;;;;;5135420;27;20049;-66
2023/08/19 04:05:03;;;;;;;21.08;17.08;;;19.40;99.90;;;;;;5116472;27;20039;-66
2023/08/19 04:07:29;;;;;;;20.15;18.10;;;19.40;99.90;;;;;;5135097;27;20083;-66
2023/08/19 04:09:55;;;;;;;20.63;18.63;;;19.50;99.90;;;;;;5099569;27;20103;-66
2023/08/19 04:12:25;;;;;;;20.95;18.70;;;19.40;99.90;;;;;;5134496;27;20116;-66
2023/08/19 04:14:51;;;;;;;24.58;22.02;;;19.40;99.90;;;;;;5134525;27;20050;-66
2023/08/19 04:17:17;;;;;;;25.63;20.92;;;19.50;99.90;;;;;;5134612;27;20077;-66
2023/08/19 04:19:43;;;;;;;22.33;20.13;;;19.40;99.90;;;;;;5116143;27;20043;-66
2023/08/19 04:22:19;;;;;;;21.40;19.20;;;19.40;99.90;;;;;;5134383;27;20367;-66
2023/08/19 04:24:54;;;;;;;21.50;19.27;;;19.40;99.90;;;;;;5134397;27;20039;-66
2023/08/19 04:27:21;;;;;;;19.60;17.50;;;19.40;99.90;;;;;;5134929;27;20047;-66
2023/08/19 04:29:47;;;;;;;18.75;16.75;;;19.40;99.90;;;;;;5134213;27;20051;-66
2023/08/19 04:32:13;;;;;;;21.33;18.08;;;19.30;99.90;;;;;;5116430;27;20054;-66
2023/08/19 04:34:39;;;;;;;21.70;18.63;;;19.30;99.90;;;;;;5134041;27;20043;-66
2023/08/19 04:37:06;;;;;;;22.20;19.73;;;19.40;99.90;;;;;;5115779;27;20043;-66
2023/08/19 04:39:32;;;;;;;17.88;15.88;;;19.40;99.90;;;;;;5115884;27;20047;-66
2023/08/19 04:41:59;;;;;;;18.73;16.60;;;19.40;99.90;;;;;;5133237;27;20047;-66
2023/08/19 04:44:24;;;;;;;21.05;19.05;;;19.50;99.90;;;;;;5134158;27;20083;-66
2023/08/19 04:46:50;;;;;;;19.80;17.80;;;19.60;99.90;;;;;;5115805;27;20053;-66
2023/08/19 04:49:16;;;;;;;23.95;18.23;;;19.60;99.90;;;;;;5134343;27;20101;-66
2023/08/19 04:51:41;;;;;;;21.58;18.40;;;19.70;99.90;;;;;;5133792;27;20055;-66
2023/08/19 04:54:07;;;;;;;20.65;18.45;;;19.70;99.90;;;;;;5133677;27;20045;-66
2023/08/19 04:56:33;;;;;;;20.90;18.65;;;19.70;99.90;;;;;;5115421;27;20039;-67
2023/08/19 04:59:02;;;;;;;20.65;18.13;;;19.80;99.90;;;;;;5133987;27;20051;-67
2023/08/19 05:01:28;;;;;;;21.90;17.38;;;19.90;99.90;;;;;;5134082;27;20050;-67
2023/08/19 05:03:54;;;;;;;19.88;17.38;;;19.90;99.90;;;;;;5115339;27;20039;-67
2023/08/19 05:06:20;;;;;;;19.45;17.25;;;20.00;99.90;;;;;;5133656;27;20039;-67
2023/08/19 05:08:46;;;;;;;20.52;18.35;;;20.00;99.90;;;;;;5133656;27;20130;-67
2023/08/19 05:11:12;;;;;;;22.20;18.23;;;20.10;99.90;;;;;;5133978;27;20444;-67
2023/08/19 05:13:38;;;;;;;20.75;18.00;;;20.10;99.90;;;;;;5133952;27;20047;-67
2023/08/19 05:16:04;;;;;;;19.58;17.48;;;20.20;99.90;;;;;;5133502;27;20061;-67
2023/08/19 05:18:30;;;;;;;19.42;17.13;;;20.30;99.90;;;;;;5133494;27;20046;-67
2023/08/19 05:20:56;;;;;;;19.40;16.83;;;20.30;99.90;;;;;;5133688;28;20039;-65
2023/08/19 05:23:21;;;;;;;20.33;18.23;;;20.40;99.90;;;;;;5133715;28;20054;-67
2023/08/19 05:25:47;;;;;;;18.80;16.83;;;20.40;99.90;;;;;;5115433;28;20344;-67
2023/08/19 05:28:13;;;;;;;17.70;15.80;;;20.40;99.90;;;;;;5132710;28;20043;-67
2023/08/19 05:30:38;;;;;;;21.10;18.05;;;20.50;99.90;;;;;;5115578;28;20049;-67
2023/08/19 05:33:04;;;;;;;20.50;18.30;;;20.60;99.90;;;;;;5133559;28;20047;-67
2023/08/19 05:35:30;;;;;;;19.20;17.08;;;20.70;99.90;;;;;;5133188;28;20047;-67
2023/08/19 05:37:56;;;;;;;19.58;16.73;;;20.70;99.90;;;;;;5133233;28;20448;-67
2023/08/19 05:40:21;;;;;;;21.90;16.25;;;20.70;99.90;;;;;;5133654;28;20049;-67
2023/08/19 05:42:47;;;;;;;22.33;16.38;;;20.70;99.90;;;;;;5115329;28;20467;-68
2023/08/19 05:45:14;;;;;;;17.95;16.05;;;20.70;99.90;;;;;;5133197;28;20054;-67
2023/08/19 05:47:40;;;;;;;18.05;15.50;;;20.70;99.90;;;;;;5132789;28;20286;-67
2023/08/19 05:50:07;;;;;;;17.67;15.00;;;20.70;99.90;;;;;;5133959;28;20091;-67
2023/08/19 05:52:32;;;;;;;18.77;16.13;;;20.80;99.90;;;;;;5133951;27;20074;-67
2023/08/19 05:54:58;;;;;;;17.77;15.38;;;20.80;99.90;;;;;;5137052;27;20458;-67
2023/08/19 05:57:24;;;;;;;19.13;15.27;;;20.80;99.90;;;;;;5118940;27;20057;-68
2023/08/19 05:59:49;;;;;;;18.20;16.02;;;20.90;99.90;;;;;;5118845;27;20396;-67
2023/08/19 06:02:15;;;;;;;20.52;15.45;;;20.90;99.90;;;;;;5137128;27;20044;-68
2023/08/19 06:04:42;;;;;;;17.67;15.52;;;20.90;99.90;;;;;;5118690;27;20085;-67
2023/08/19 06:07:09;;;;;;;20.77;16.20;;;21.00;99.90;;;;;;5136831;27;20047;-68
2023/08/19 06:09:34;;;;;;;18.80;16.45;;;21.10;99.90;;;;;;5118847;27;20082;-67
2023/08/19 06:12:02;;;;;;;18.92;15.38;;;21.10;99.90;;;;;;5136974;27;20490;-67
2023/08/19 06:14:28;;;;;;;16.60;14.93;;;21.20;99.90;;;;;;5136693;27;20103;-68
2023/08/19 06:16:53;;;;;;;20.45;14.90;;;21.20;99.90;;;;;;5136529;27;20043;-68
2023/08/19 06:19:19;;;;;;;20.17;15.77;;;21.40;99.90;;;;;;5136793;27;20114;-67
2023/08/19 06:21:46;;;;;;;19.55;16.45;;;21.40;99.90;;;;;;5136560;27;20510;-67
2023/08/19 06:24:11;;;;;;;20.90;18.80;;;21.50;99.90;;;;;;5136551;27;20054;-67
2023/08/19 06:26:37;;;;;;;18.20;16.27;;;21.60;99.90;;;;;;5136230;27;20039;-67
2023/08/19 06:29:03;;;;;;;16.30;14.48;;;21.60;99.90;;;;;;5136847;27;20082;-66
2023/08/19 06:31:29;;;;;;;16.60;14.57;;;21.70;99.90;;;;;;5118229;27;20071;-68
2023/08/19 06:33:55;;;;;;;14.88;13.38;;;21.80;99.90;;;;;;5136505;27;20050;-68
2023/08/19 06:36:24;;;;;;;16.75;13.02;;;21.80;99.90;;;;;;5136671;27;20047;-68
2023/08/19 06:38:59;;;;;;;14.40;12.90;;;22.00;99.90;;;;;;5136276;27;20043;-67
2023/08/19 06:41:25;;;;;;;16.33;12.98;;;22.10;99.90;;;;;;5136176;27;20043;-68
2023/08/19 06:43:51;;;;;;;15.02;13.15;;;22.20;99.90;;;;;;5136273;27;20051;-68
2023/08/19 06:46:19;;;;;;;12.57;11.27;;;22.20;99.90;;;;;;5135807;27;20426;-68
2023/08/19 06:48:45;;;;;;;17.33;12.77;;;22.20;99.90;;;;;;5135629;27;20063;-68
2023/08/19 06:51:11;;;;;;;20.90;12.40;;;22.10;99.90;;;;;;5136634;27;20058;-67
2023/08/19 06:53:37;;;;;;;14.95;12.32;;;22.10;99.90;;;;;;5118474;27;20508;-68
2023/08/19 06:56:24;;;;;;;14.35;12.38;;;22.10;99.90;;;;;;5117416;27;20101;-68
2023/08/19 06:58:58;;;;;;;13.35;11.88;;;22.00;99.90;;;;;;5135870;27;20050;-67
2023/08/19 07:01:29;;;;;;;15.27;13.68;;;22.00;99.90;;;;;;5135763;27;20059;-67
2023/08/19 07:03:55;;;;;;;14.25;12.35;;;22.00;99.90;;;;;;5135126;27;20387;-68
2023/08/19 07:06:21;;;;;;;13.77;12.35;;;22.00;99.90;;;;;;5117429;27;20039;-67
2023/08/19 07:08:47;;;;;;;15.43;12.25;;;22.00;99.90;;;;;;5135645;27;20047;-68
2023/08/19 07:11:15;;;;;;;12.73;11.13;;;22.00;99.90;;;;;;5135553;27;20083;-67
2023/08/19 07:13:42;;;;;;;15.85;11.77;;;22.00;99.90;;;;;;5135200;27;20437;-67
2023/08/19 07:16:10;;;;;;;13.38;11.85;;;22.10;99.90;;;;;;5135642;27;20118;-67
2023/08/19 07:18:47;;;;;;;13.90;12.05;;;22.00;99.90;;;;;;5136034;27;20126;-67
2023/08/19 07:21:15;;;;;;;15.07;13.20;;;22.00;99.90;;;;;;5135700;27;20055;-67
2023/08/19 07:23:44;;;;;;;13.65;11.75;;;22.10;99.90;;;;;;5135048;27;20051;-67
2023/08/19 07:26:10;;;;;;;12.98;11.27;;;22.10;99.90;;;;;;5134582;27;20035;-68
2023/08/19 07:28:36;;;;;;;13.60;11.10;;;22.20;99.90;;;;;;5117058;27;20087;-67
2023/08/19 07:31:06;;;;;;;14.48;11.20;;;22.20;99.90;;;;;;5135789;27;20035;-67
2023/08/19 07:33:32;;;;;;;12.50;11.27;;;22.30;99.90;;;;;;5135125;27;20050;-68
2023/08/19 07:35:58;;;;;;;12.18;10.98;;;22.30;99.90;;;;;;5135033;27;20055;-68
2023/08/19 07:38:24;;;;;;;12.90;11.60;;;22.40;99.90;;;;;;5135181;27;20122;-68
2023/08/19 07:40:50;;;;;;;12.57;11.00;;;22.50;99.90;;;;;;5135022;27;20091;-68
2023/08/19 07:43:15;;;;;;;11.80;10.60;;;22.60;99.90;;;;;;5134836;27;20043;-68
2023/08/19 07:45:41;;;;;;;12.20;10.65;;;22.60;99.90;;;;;;5117074;27;20115;-68
2023/08/19 07:48:07;;;;;;;13.88;10.38;;;22.70;99.90;;;;;;5134960;27;20039;-69
2023/08/19 07:50:32;;;;;;;14.00;10.55;;;22.80;99.90;;;;;;5134618;27;20172;-68
2023/08/19 07:52:58;;;;;;;11.52;8.68;;;22.90;99.90;;;;;;5135467;27;20054;-68
2023/08/19 07:55:24;;;;;;;11.65;9.95;;;22.90;99.90;;;;;;5134804;27;20501;-67
2023/08/19 07:57:49;;;;;;;11.95;9.88;;;23.00;99.90;;;;;;5134689;27;20213;-68
2023/08/19 08:00:15;;;;;;;10.65;9.02;;;23.00;99.90;;;;;;5135036;27;20054;-68
2023/08/19 08:02:41;;;;;;;10.05;8.55;;;23.10;99.90;;;;;;5134975;27;20108;-68
2023/08/19 08:05:07;;;;;;;12.60;9.30;;;23.20;99.90;;;;;;5135380;27;20047;-68
2023/08/19 08:07:33;;;;;;;10.20;9.18;;;23.20;99.90;;;;;;5099494;27;20035;-68
2023/08/19 08:09:59;;;;;;;10.75;9.65;;;23.30;99.90;;;;;;5116283;27;20137;-67
2023/08/19 08:12:24;;;;;;;13.23;9.88;;;23.30;99.90;;;;;;5134824;27;20047;-68
2023/08/19 08:14:50;;;;;;;10.85;9.75;;;23.30;99.90;;;;;;5134348;27;20087;-67
2023/08/19 08:17:16;;;;;;;10.15;8.30;;;23.50;99.90;;;;;;5133589;27;20047;-68
2023/08/19 08:19:41;;;;;;;10.02;8.77;;;23.50;99.90;;;;;;5134498;27;20405;-67
2023/08/19 08:22:07;;;;;;;12.23;9.13;;;23.60;99.90;;;;;;5134585;27;20122;-68
2023/08/19 08:24:33;;;;;;;9.95;8.85;;;23.70;99.90;;;;;;5134549;27;20043;-68
2023/08/19 08:26:59;;;;;;;12.10;8.95;;;23.80;99.90;;;;;;5134562;27;20133;-68
2023/08/19 08:29:25;;;;;;;10.48;8.65;;;24.10;99.90;;;;;;5134344;27;20452;-68
2023/08/19 08:31:50;;;;;;;11.48;9.23;;;24.20;99.90;;;;;;5115837;27;20054;-68
2023/08/19 08:34:16;;;;;;;10.18;7.88;;;24.20;99.90;;;;;;5115799;27;20043;-68
2023/08/19 08:36:42;;;;;;;10.93;7.75;;;24.20;99.90;;;;;;5133875;27;20061;-68
2023/08/19 08:39:08;;;;;;;8.75;7.93;;;24.10;99.90;;;;;;5115588;27;20059;-68
2023/08/19 08:41:38;;;;;;;9.20;7.85;;;24.20;99.90;;;;;;5134213;27;20047;-68
2023/08/19 08:44:08;;;;;;;9.70;8.07;;;24.20;99.90;;;;;;5134444;27;20051;-68
2023/08/19 08:46:36;;;;;;;8.65;6.82;;;24.20;99.90;;;;;;5134295;27;20166;-68
2023/08/19 08:49:03;;;;;;;8.32;7.10;;;24.30;99.90;;;;;;5133515;27;20051;-68
2023/08/19 08:51:29;;;;;;;9.57;8.23;;;24.40;99.90;;;;;;5134070;27;20094;-68
2023/08/19 08:53:56;;;;;;;9.20;7.22;;;24.60;99.90;;;;;;5134218;27;20096;-67
2023/08/19 08:56:23;;;;;;;9.00;7.93;;;24.80;99.90;;;;;;5114612;27;20443;-67
2023/08/19 08:58:49;;;;;;;9.27;6.85;;;25.00;99.90;;;;;;5115621;27;20043;-67
2023/08/19 09:01:17;;;;;;;8.35;6.78;;;25.30;99.90;;;;;;5133828;27;20045;-67
2023/08/19 09:03:45;;;;;;;9.88;6.50;;;25.40;99.90;;;;;;5133953;27;20043;-68
2023/08/19 09:06:16;;;;;;;7.28;6.55;;;25.60;99.90;;;;;;5133926;27;20114;-69
2023/08/19 09:09:02;;;;;;;10.63;7.82;;;25.80;99.90;;;;;;5133863;27;20125;-69
2023/08/19 09:11:32;;;;;;;7.68;6.63;;;26.00;99.90;;;;;;5133337;27;20043;-69
2023/08/19 09:14:17;;;;;;;10.05;6.80;;;26.70;99.90;;;;;;5098198;27;20077;-69
2023/08/19 09:16:43;;;;;;;8.48;6.60;;;27.30;99.90;;;;;;5133407;27;20043;-69
2023/08/19 09:19:09;;;;;;;6.78;6.05;;;27.40;99.90;;;;;;5114936;28;20055;-69
2023/08/19 09:21:34;;;;;;;10.60;6.13;;;27.30;99.90;;;;;;5133286;27;20058;-69
2023/08/19 09:24:00;;;;;;;6.78;6.10;;;27.30;99.90;;;;;;5114814;28;20126;-69
2023/08/19 09:26:26;;;;;;;6.40;5.75;;;27.50;99.90;;;;;;5098278;28;20055;-69
2023/08/19 09:28:58;;;;;;;7.10;5.68;;;27.60;99.90;;;;;;5118733;27;20091;-70
2023/08/19 09:31:25;;;;;;;7.20;5.65;;;27.60;99.90;;;;;;5137649;27;20050;-69
2023/08/19 09:33:54;;;;;;;6.38;5.43;;;27.60;99.90;;;;;;5119816;27;20055;-69
2023/08/19 09:36:24;;;;;;;5.85;5.20;;;27.60;99.90;;;;;;5137346;27;20226;-69
2023/08/19 09:38:54;;;;;;;9.70;5.65;;;27.50;99.90;;;;;;5137369;27;20038;-69
2023/08/19 09:41:20;;;;;;;6.70;5.38;;;27.40;99.90;;;;;;5118887;27;20090;-69
2023/08/19 09:43:48;;;;;;;10.68;5.40;;;27.40;99.90;;;;;;5137382;27;20047;-69
2023/08/19 09:46:16;;;;;;;6.07;5.47;;;27.30;99.90;;;;;;5137280;27;20047;-69
2023/08/19 09:48:53;;;;;;;7.70;5.35;;;27.20;99.90;;;;;;5137149;27;20100;-69
2023/08/19 09:51:29;;;;;;;8.35;5.25;;;27.20;99.90;;;;;;5137025;27;20510;-69
2023/08/19 09:53:55;;;;;;;7.68;5.22;;;27.20;99.90;;;;;;5137213;27;20444;-69
2023/08/19 09:56:28;;;;;;;7.80;5.22;;;27.30;99.90;;;;;;5136863;27;20043;-70
2023/08/19 09:58:54;;;;;;;9.13;5.40;;;27.40;99.90;;;;;;5137696;27;20049;-70
2023/08/19 10:01:22;;;;;;;6.50;5.03;;;27.50;99.90;;;;;;5101881;27;20051;-69
2023/08/19 10:03:49;;;;;;;8.48;5.30;;;27.50;99.90;;;;;;5136885;27;20039;-69
2023/08/19 10:06:26;;;;;;;6.15;5.55;;;27.80;99.90;;;;;;5101715;27;20111;-69
2023/08/19 10:09:02;;;;;;;6.10;5.50;;;27.90;99.90;;;;;;5119214;27;20170;-69
2023/08/19 10:11:30;;;;;;;7.78;5.32;;;28.10;99.90;;;;;;5119250;27;20046;-69
2023/08/19 10:14:00;;;;;;;6.88;5.38;;;28.10;99.90;;;;;;5136816;27;20392;-69
2023/08/19 10:16:28;;;;;;;8.85;5.70;;;28.20;99.90;;;;;;5136826;27;20049;-69
2023/08/19 10:18:54;;;;;;;6.20;5.60;;;28.10;99.90;;;;;;5119101;27;20135;-69
2023/08/19 10:21:22;;;;;;;7.18;5.15;;;27.90;99.90;;;;;;5137193;27;20103;-69
2023/08/19 10:23:49;;;;;;;6.68;5.55;;;27.70;99.90;;;;;;5136819;27;20114;-69
2023/08/19 10:26:15;;;;;;;6.15;5.43;;;27.50;99.90;;;;;;5136624;27;20062;-69
2023/08/19 10:28:41;;;;;;;7.15;6.15;;;27.30;99.90;;;;;;5136499;27;20089;-69
2023/08/19 10:31:09;;;;;;;7.63;6.10;;;27.10;99.90;;;;;;5137049;27;20047;-68
2023/08/19 10:33:42;;;;;;;7.60;6.75;;;26.70;99.90;;;;;;5136453;27;20039;-69
2023/08/19 10:36:09;;;;;;;9.45;6.63;;;26.60;99.90;;;;;;5118074;27;20043;-69
2023/08/19 10:38:45;;;;;;;10.65;8.05;;;26.40;99.90;;;;;;5135888;27;20049;-70
2023/08/19 10:41:25;;;;;;;9.25;7.65;;;26.30;99.90;;;;;;5135925;27;20051;-69
2023/08/19 10:44:02;;;;;;;16.05;8.38;;;26.20;99.90;;;;;;5136198;27;20043;-69
2023/08/19 10:46:44;;;;;;;9.75;7.20;;;26.20;99.90;;;;;;5135865;27;20435;-67
2023/08/19 10:49:14;;;;;;;8.30;7.00;;;26.10;99.90;;;;;;5117830;27;20047;-69
2023/08/19 10:51:51;;;;;;;9.98;7.38;;;26.00;99.90;;;;;;5136445;27;20055;-69
2023/08/19 10:54:38;;;;;;;12.77;7.78;;;26.00;99.90;;;;;;5136481;27;20051;-71
2023/08/19 10:57:11;;;;;;;8.00;7.20;;;25.90;99.90;;;;;;5135845;27;20035;-71
2023/08/19 10:59:38;;;;;;;;;;;25.90;99.90;;;;;;5136840;27;20043;-71
2023/08/19 11:02:07;;;;;;;9.70;8.70;;;25.80;99.90;;;;;;5136030;27;19920;-72
2023/08/19 11:04:43;;;;;;;16.48;8.65;;;25.70;99.90;;;;;;5135632;27;20065;-72
2023/08/19 11:07:10;;;;;;;10.80;9.40;;;25.70;99.90;;;;;;5135879;27;20492;-73
2023/08/19 11:09:36;;;;;;;8.98;8.15;;;25.60;99.90;;;;;;5117700;27;20035;-72
2023/08/19 11:12:02;;;;;;;13.02;9.05;;;25.60;99.90;;;;;;5135687;27;20439;-72
2023/08/19 11:14:30;;;;;;;13.02;8.30;;;25.60;99.90;;;;;;5135720;27;20054;-73
2023/08/19 11:16:56;;;;;;;9.95;7.78;;;25.60;99.90;;;;;;5135393;27;20159;-74
2023/08/19 11:19:22;;;;;;;12.02;9.05;;;25.60;99.90;;;;;;5117761;27;20043;-74
2023/08/19 11:21:49;;;;;;;9.75;8.57;;;25.60;99.90;;;;;;5135217;27;20143;-73
2023/08/19 11:24:15;;;;;;;12.55;9.23;;;25.60;99.90;;;;;;5135127;27;20566;-74
2023/08/19 11:26:42;;;;;;;12.55;8.75;;;25.70;99.90;;;;;;5135291;27;20082;-73
2023/08/19 11:29:08;;;;;;;14.93;9.48;;;25.80;99.90;;;;;;5117024;27;20043;-73
2023/08/19 11:31:42;;;;;;;11.82;9.27;;;26.00;99.90;;;;;;5135080;27;20046;-73
2023/08/19 11:34:10;;;;;;;10.55;8.30;;;26.40;99.90;;;;;;5135855;27;20112;-73
2023/08/19 11:36:37;;;;;;;11.98;9.02;;;27.00;99.90;;;;;;5135470;27;20044;-74
2023/08/19 11:39:04;;;;;;;9.13;8.05;;;27.30;99.90;;;;;;5136007;27;20112;-72
2023/08/19 11:41:30;;;;;;;8.95;8.05;;;27.50;99.90;;;;;;5134905;27;20039;-72
2023/08/19 11:43:57;;;;;;;10.38;9.30;;;27.60;99.90;;;;;;5134672;27;20399;-73
2023/08/19 11:46:27;;;;;;;11.85;8.90;;;27.60;99.90;;;;;;5116860;27;20047;-73
2023/08/19 11:48:53;;;;;;;10.65;9.45;;;27.40;99.90;;;;;;5100414;27;20081;-73
2023/08/19 11:51:20;;;;;;;11.70;10.20;;;27.40;99.90;;;;;;5133971;27;20051;-73
2023/08/19 11:53:51;;;;;;;10.52;9.43;;;27.50;99.90;;;;;;5134556;27;20047;-73
2023/08/19 11:56:17;;;;;;;11.13;9.40;;;27.50;99.90;;;;;;5115964;27;20376;-73
2023/08/19 11:58:53;;;;;;;10.52;9.45;;;27.50;99.90;;;;;;5134689;27;20046;-74
2023/08/19 12:01:20;;;;;;;10.88;9.80;;;27.50;99.90;;;;;;5134343;27;20468;-75
2023/08/19 12:03:51;;;;;;;14.40;11.30;;;27.50;99.90;;;;;;5134629;27;20043;-73
2023/08/19 12:06:17;;;;;;;14.07;11.80;;;27.50;99.90;;;;;;5116187;27;20043;-67
2023/08/19 12:08:44;;;;;;;14.35;10.35;;;27.60;99.90;;;;;;5099243;27;20085;-68
2023/08/19 12:11:14;;;;;;;13.52;11.13;;;27.70;99.90;;;;;;5134276;27;20043;-69
2023/08/19 12:13:40;;;;;;;13.07;11.70;;;27.80;99.90;;;;;;5134405;27;20065;-70
2023/08/19 12:16:07;;;;;;;13.45;11.98;;;27.90;99.90;;;;;;5134489;27;20039;-69
2023/08/19 12:18:34;;;;;;;14.82;13.05;;;28.00;99.90;;;;;;5134345;27;20043;-69
2023/08/19 12:21:03;;;;;;;16.73;13.88;;;28.10;99.90;;;;;;5134189;27;20039;-69
2023/08/19 12:23:29;;;;;;;17.67;14.20;;;28.00;99.90;;;;;;5134450;27;20047;-70
2023/08/19 12:25:56;;;;;;;17.77;13.40;;;28.10;99.90;;;;;;5134313;27;20039;-69
2023/08/19 12:28:24;;;;;;;18.65;15.35;;;28.10;99.90;;;;;;5133867;27;20422;-69
2023/08/19 12:30:51;;;;;;;19.05;15.23;;;28.10;99.90;;;;;;5134613;27;20047;-70
2023/08/19 12:33:18;;;;;;;18.90;15.85;;;28.20;99.90;;;;;;5134108;27;20528;-69
2023/08/19 12:35:46;;;;;;;20.48;17.42;;;28.30;99.90;;;;;;5116057;27;20043;-70